Terminal Aerodrome Forecast
Issued by NWS Amarillo, TX

Home | Current Version | Previous Version | Text Only | Print | Product List | Glossary On
Versions: 1 2 3 4 5 6 7 8 9 10 11 12 13 14 15 16 17 18 19 20
356
FTUS44 KAMA 301720
TAFGUY
TAF
KGUY 301720Z 3018/0118 33015G23KT P6SM BKN045
     FM010200 34020G29KT P6SM BKN040
     FM010900 36016G24KT P6SM BKN020=

USA.gov is the U.S. government's official web portal to all federal, state and local government web resources and services.